Whale Point, California Weather observations

Data are for observation ending at time listed.
 Day   Time    Ave.   Ave.  Ave.  Vector   Max.   Stn.    Total    Solar   Ave.  
  of    of     Air    Rel.  Wind   Wind    Wind   Baro.  Precip.   Rad.    Soil  
Year   Day     Temp.  Hum.  Speed  Dir.    Gust   Pres.                    Temp. 
2017   (PST)    F      %     mph   deg.    mph     mb.     in.     W/m2     F   
------------------------------------------------------------------------------
  54    8:40   45.6    54    2.3    16      6.9   1001.7    0.00     367    49.4
  54    8:50   46.2    50    2.8    29      8.8   1001.7    0.00     403    49.3
  54    9:00   46.2    50    5.5     6     11.1   1001.7    0.00     440    49.3
  54    9:10   46.5    50    4.8   337     14.8   1002.0    0.00     480    49.3
  54    9:20   46.5    53    4.9   332     11.6   1001.7    0.00     399    49.3
  54    9:30   46.7    53    3.5   317      9.5   1001.7    0.00     451    49.2
  54    9:40   47.2    55    6.3   319     15.7   1001.7    0.00     532    49.2
  54    9:50   46.5    58    8.0   359     19.4   1001.7    0.00     360    49.2
  54   10:00   46.7    56   10.0    13     18.3   1001.7    0.00     582    49.2
  54   10:10   46.9    57    6.2   356     15.8   1001.7    0.00     461    49.2
  54   10:20   47.9    56    4.5   118     12.8   1001.7    0.00     483    49.1
  54   10:30   47.8    59    5.2    46     14.0   1001.7    0.00     681    49.1
  54   10:40   48.5    58    4.6   148     13.8   1001.7    0.00     614    49.1
  54   10:50   49.3    54    4.8   147     13.5   1001.7    0.00     602    49.1
  54   11:00   48.5    58    4.1    93     13.3   1001.7    0.00     581    49.1
  54   11:10   49.3    57    5.1   117     13.2   1001.4    0.00     588    49.1
  54   11:20   49.1    59    5.3   157     15.6   1001.4    0.00     629    49.2
  54   11:30   49.2    60    5.0    74     19.1   1001.4    0.00     568    49.3
  54   11:40   48.6    60    5.3    49     15.7   1001.4    0.00     617    49.3
  54   11:50   49.7    60    4.6    81     17.1   1001.4    0.00     890    49.4
  54   12:00   50.0    60    5.0   140     16.4   1001.0    0.00     783    49.4
  54   12:10   50.3    61    5.7   144     15.0   1001.0    0.00     778    49.5
  54   12:20   49.7    59    5.4    42     14.8   1001.0    0.00     811    49.6
  54   12:30   49.0    60    7.2    29     23.4   1000.7    0.00     825    49.6
  54   12:40   48.9    60    7.4    52     27.8   1000.7    0.00     801    49.7
  54   12:50   49.3    60    8.2    36     26.9   1000.7    0.00     817    49.8
  54   13:00   48.3    61   15.7    29     31.5   1000.7    0.00     850    49.9
  54   13:10   48.3    61   13.6    29     29.1   1000.7    0.00     840    50.1
  54   13:20   48.4    60   13.7    34     34.5   1000.3    0.00     798    50.2
  54   13:30   48.6    59   14.6    32     24.2   1000.3    0.00     839    50.3
  54   13:40   48.6    58   14.7    30     28.4   1000.3    0.00     769    50.5
  54   13:50   48.2    58   16.1    32     31.2   1000.3    0.00     723    50.6
  54   14:00   48.4    54   15.8    26     30.3   1000.0    0.00     715    50.8
  54   14:10   48.3    52   17.2    29     35.6   1000.0    0.00     698    50.9
  54   14:20   48.7    51   14.7    25     26.6   1000.0    0.00     675    51.1
  54   14:30   48.3    50   19.0    22     36.3   1000.0    0.00     651    51.2
  54   14:40   48.5    55   16.9    24     31.8   1000.0    0.00     624    51.4
  54   14:50   48.5    55   14.2    27     30.7   1000.0    0.00     599    51.5
  54   15:00   48.4    56   17.9    20     34.6   1000.0    0.00     570    51.7
  54   15:10   48.2    57   18.4    14     32.0   1000.0    0.00     541    51.8
  54   15:20   48.0    55   16.9    19     35.3   1000.0    0.00     509    52.0
  54   15:30   48.2    54   17.4    22     31.4   1000.0    0.00     476    52.1
  54   15:40   48.2    53   15.9    20     31.8   1000.0    0.00     445    52.3
  54   15:50   47.9    58   19.4    21     36.6   999.7    0.00     412    52.4
  54   16:00   47.5    62   21.0    16     36.8   999.7    0.00     379    52.5
  54   16:10   47.5    60   21.5     9     38.5   1000.0    0.00     343    52.6
  54   16:20   47.3    62   21.5     1     42.8   1000.0    0.00     307    52.7
  54   16:30   47.3    61   20.8     2     37.1   1000.0    0.00     271    52.8
  54   16:40   47.2    62   21.6     2     36.6   999.7    0.00     236    52.9
  54   16:50   47.2    62   21.1     3     38.0   999.7    0.00     200    53.0
  54   17:00   47.0    61   21.8     7     37.9   999.7    0.00     166    53.1
  54   17:10   47.0    60   22.3    12     35.4   999.7    0.00     134    53.2
  54   17:20   46.8    59   19.1     6     30.4   999.7    0.00     103    53.2
  54   17:30   46.7    57   15.1   352     31.5   999.7    0.00      74    53.3
  54   17:40   46.6    53   16.9     0     30.5   999.7    0.00      42    53.3
  54   17:50   46.2    56   14.8     1     25.9   1000.0    0.00      13    53.3
  54   18:00   46.0    59   15.0   355     25.4   1000.0    0.00       5    53.3
  54   18:10   45.9    60   12.5   347     21.5   1000.0    0.00       2    53.3
  54   18:20   45.6    60   10.8   355     18.9   1000.0    0.00       0    53.3
  54   18:30   45.4    59    7.2    19     15.3   1000.0    0.00       0    53.3
  54   18:40   44.3    63    5.0    45      7.7   1000.0    0.00       0    53.3
  54   18:50   43.3    67    4.4    43      6.2   1000.3    0.00       0    53.3
  54   19:00   42.8    65    4.1    33      6.3   1000.3    0.00       0    53.2
  54   19:10   43.8    57    5.9    22      8.8   1000.7    0.00       0    53.2
  54   19:20   43.8    56    5.2    42      9.3   1000.7    0.00       0    53.2
  54   19:30   44.0    53    5.0    28     11.3   1000.7    0.00       0    53.1
  54   19:40   44.0    52    5.6    27     11.0   1000.7    0.00       0    53.0
  54   19:50   43.8    54    3.0    50      7.0   1000.7    0.00       0    53.0
  54   20:00   43.4    55    8.1    36     14.5   1000.7    0.00       0    52.9
  54   20:10   43.4    55    6.9    22     13.6   1000.7    0.00       0    52.8
  54   20:20   43.1    56    6.1    28     12.4   1001.0    0.00       0    52.8
  54   20:30   43.0    56    4.9    22      9.0   1001.0    0.00       0    52.7
  54   20:40   42.9    56    4.5    28     12.5   1001.0    0.00       0    52.6
  54   20:50   43.0    56    6.2    17     14.9   1001.0    0.00       0    52.6
  54   21:00   43.3    55    7.3    36     15.0   1001.0    0.00       0    52.5
  54   21:10   43.6    54    6.6    17     13.9   1001.4    0.00       0    52.4
  54   21:20   43.5    55    6.5    15     13.7   1001.4    0.00       0    52.3
  54   21:30   43.4    55    7.0    20     12.6   1001.4    0.00       0    52.2
  54   21:40   43.8    54    8.0    24     12.3   1001.4    0.00       0    52.1
  54   21:50   43.8    54    7.3    22     11.0   1001.4    0.00       0    52.1
  54   22:00   43.9    53    6.5    27     10.2   1001.4    0.00       0    52.0
  54   22:10   43.7    54    7.6    42     10.3   1001.7    0.00       0    51.9
  54   22:20   43.7    55    7.8    37     11.0   1001.7    0.00       0    51.8
  54   22:30   43.7    55    6.9    20     10.5   1001.4    0.00       0    51.7
  54   22:40   43.5    56    4.9    23      9.7   1001.4    0.00       0    51.7
  54   22:50   43.3    57    5.8     6     10.3   1001.4    0.00       0    51.6
  54   23:00   43.2    57    5.7    10      9.9   1001.4    0.00       0    51.5
  54   23:10   43.7    56    6.0   353     12.1   1001.4    0.00       0    51.4
  54   23:20   43.3    57    6.1    17     11.5   1001.4    0.00       0    51.3
  54   23:30   43.6    56    8.2    35     13.5   1001.7    0.00       0    51.3
  54   23:40   43.8    56    7.0    30     10.9   1002.0    0.00       0    51.2
  54   23:50   43.1    57    8.1    51     13.1   1002.0    0.00       0    51.1
  55    0:00   43.4    56    7.9    42     11.5   1002.0    0.00       0    51.0
  55    0:10   43.1    57    8.2    50     10.9   1002.0    0.00       0    50.9
  55    0:20   42.7    58    9.2    53     13.6   1002.4    0.00       0    50.8
  55    0:30   43.2    56    9.2    44     12.3   1002.4    0.00       0    50.8
  55    0:40   42.6    58    8.8    51     12.3   1002.4    0.00       0    50.7
  55    0:50   42.4    58    7.9    55     12.0   1002.0    0.00       0    50.6
  55    1:00   42.4    58    6.5    38     13.2   1002.0    0.00       0    50.6
  55    1:10   42.5    58    4.9    14     10.8   1001.7    0.00       0    50.5
  55    1:20   42.3    59    6.0    16     12.0   1001.7    0.00       0    50.4
  55    1:30   42.9    57    8.1    25     17.2   1001.4    0.00       0    50.3
  55    1:40   43.0    57    4.4   346     10.2   1001.4    0.00       0    50.3
  55    1:50   43.4    55    5.3    66     13.4   1001.7    0.00       0    50.2
  55    2:00   43.5    54    3.2   148     11.7   1001.7    0.00       0    50.1
  55    2:10   43.3    55    4.0   115     11.2   1001.7    0.00       0    50.0
  55    2:20   43.2    55    3.2    43      8.5   1001.7    0.00       0    50.0
  55    2:30   42.9    56    2.2    37      6.2   1001.4    0.00       0    49.9
  55    2:40   43.1    56    3.7     9      9.1   1001.4    0.00       0    49.8
  55    2:50   43.2    55    3.3    32     11.2   1001.0    0.00       0    49.8
  55    3:00   43.4    54    6.9    49     11.7   1001.0    0.00       0    49.7
  55    3:10   43.6    53    8.3    26     11.9   1001.0    0.00       0    49.6
  55    3:20   42.7    56    8.6    11     12.6   1000.7    0.00       0    49.6
  55    3:30   42.8    55    8.4    28     11.8   1001.0    0.00       0    49.5
  55    3:40   43.7    52    7.9    40     15.1   1001.0    0.00       0    49.4
  55    3:50   44.1    50    8.9    34     13.6   1001.0    0.00       0    49.4
  55    4:00   43.8    51    5.3    21     11.0   1001.0    0.00       0    49.3
  55    4:10   43.6    50    4.9    49      9.0   1001.0    0.00       0    49.3
  55    4:20   44.0    48    4.6    40     11.8   1001.0    0.00       0    49.2
  55    4:30   43.2    51    5.3    27     10.0   1001.0    0.00       0    49.1
  55    4:40   42.0    53    8.4    62     13.2   1001.0    0.00       0    49.1
  55    4:50   42.2    52    8.6    61     13.0   1001.0    0.00       0    49.0
  55    5:00   43.2    49    9.6    58     12.9   1001.4    0.00       0    49.0
  55    5:10   42.9    49    6.9    62     12.6   1001.4    0.00       0    48.9
  55    5:20   42.4    50    5.5    54      9.5   1001.4    0.00       0    48.8
  55    5:30   41.6    52    7.4    55     11.3   1001.4    0.00       0    48.8
  55    5:40   41.1    52    7.8    61     10.8   1001.7    0.00       0    48.7
  55    5:50   41.9    49    8.1    51     12.5   1001.7    0.00       0    48.7
  55    6:00   42.0    48    8.4    58     11.6   1001.4    0.00       0    48.6
  55    6:10   42.2    47    7.7    57     13.0   1001.4    0.00       0    48.6
  55    6:20   41.8    48    5.6    33      9.9   1001.7    0.00       0    48.5
  55    6:30   41.9    46    7.4    37      9.9   1001.7    0.00       0    48.5
  55    6:40   42.1    44    8.8    55     11.8   1001.7    0.00       2    48.4
  55    6:50   41.9    44    9.2    63     12.2   1002.0    0.00       6    48.3
  55    7:00   41.4    44   10.8    67     13.7   1002.0    0.00      10    48.3
  55    7:10   41.5    44    9.8    62     13.5   1002.0    0.00      13    48.2
  55    7:20   41.6    44    9.2    62     13.0   1002.0    0.00      16    48.2
  55    7:30   41.8    43    9.7    51     12.2   1002.0    0.00      19    48.1
  55    7:40   42.0    42    9.2    55     12.1   1002.0    0.00      21    48.1
  55    7:50   42.6    40    8.1    59     11.0   1002.4    0.00      23    48.0
  55    8:00   42.8    40    7.5    61     10.5   1002.4    0.00      25    47.9
  55    8:10   43.2    39    7.1    52     10.2   1002.4    0.00      26    47.9
  55    8:20   43.3    40    6.4    54     10.0   1002.4    0.00      27    47.8
  55    8:30   43.8    39    5.2    65      8.5   1002.4    0.00     176    47.8

Return to Whale Point graphs page.


Western Regional Climate Center,wrcc@dri.edu